createdAt,value
2023-04-28T00:00:14.162Z,64.60
2023-04-28T00:05:16.729Z,64.20
2023-04-28T00:10:18.956Z,65.60
2023-04-28T00:15:23.271Z,66.20
2023-04-28T00:20:25.461Z,65.20
2023-04-28T00:25:27.636Z,64.20
2023-04-28T00:30:32.960Z,65.10
2023-04-28T00:35:35.145Z,64.10
2023-04-28T00:40:39.571Z,64.20
2023-04-28T00:45:41.940Z,64.70
2023-04-28T00:50:48.750Z,63.80
2023-04-28T00:55:54.315Z,63.60
2023-04-28T01:01:04.882Z,63.20
2023-04-28T01:06:09.734Z,63.90
2023-04-28T01:11:14.503Z,64.40
2023-04-28T01:16:34.087Z,64.70
2023-04-28T01:21:37.584Z,63.90
2023-04-28T01:26:49.798Z,64.30
2023-04-28T01:31:51.943Z,64.60
2023-04-28T01:36:54.116Z,64.20
2023-04-28T01:41:56.393Z,63.80
2023-04-28T01:47:00.841Z,64.30
2023-04-28T01:52:03.473Z,65.00
2023-04-28T01:57:31.965Z,65.10
2023-04-28T02:02:37.161Z,65.40
2023-04-28T02:07:41.552Z,65.70
2023-04-28T02:12:43.972Z,67.00
2023-04-28T02:17:48.261Z,67.50
2023-04-28T02:22:50.577Z,68.60
2023-04-28T02:27:52.752Z,69.30
2023-04-28T02:32:55.910Z,69.90
2023-04-28T02:37:58.107Z,70.20
2023-04-28T02:43:00.702Z,70.10
2023-04-28T02:48:05.284Z,70.40
2023-04-28T02:53:07.489Z,71.50
2023-04-28T02:58:10.186Z,72.20
2023-04-28T03:03:12.918Z,73.70
2023-04-28T03:08:15.310Z,74.00
2023-04-28T03:13:18.372Z,73.80
2023-04-28T03:18:20.642Z,74.90
2023-04-28T03:23:22.861Z,74.80
2023-04-28T03:28:25.201Z,75.00
2023-04-28T03:33:27.752Z,73.50
2023-04-28T03:38:30.976Z,72.20
2023-04-28T03:43:37.639Z,71.80
2023-04-28T03:49:02.464Z,72.40
2023-04-28T03:54:05.957Z,72.10
2023-04-28T03:59:11.889Z,71.70
2023-04-28T04:04:14.723Z,73.70
2023-04-28T04:09:17.429Z,74.20
2023-04-28T04:14:19.716Z,74.40
2023-04-28T04:19:24.155Z,75.20
2023-04-28T04:24:29.159Z,75.40
2023-04-28T04:29:31.841Z,74.20
2023-04-28T04:34:36.248Z,72.80
2023-04-28T04:39:39.329Z,73.90
2023-04-28T04:44:41.757Z,75.10
2023-04-28T04:49:53.378Z,74.50
2023-04-28T04:54:58.439Z,73.20
2023-04-28T05:00:01.103Z,73.80
2023-04-28T05:05:16.853Z,75.50
2023-04-28T05:10:27.582Z,79.60
2023-04-28T05:15:32.226Z,85.10
2023-04-28T05:21:02.566Z,91.90
2023-04-28T05:26:05.686Z,96.10
2023-04-28T05:31:08.294Z,98.20
2023-04-28T05:36:11.153Z,99.40
2023-04-28T05:41:13.660Z,99.90
2023-04-28T05:46:29.088Z,99.90
2023-04-28T05:51:34.220Z,99.90
2023-04-28T05:56:37.925Z,99.90
2023-04-28T06:01:42.346Z,99.90
2023-04-28T06:06:44.807Z,99.90
2023-04-28T06:11:49.850Z,99.90
2023-04-28T06:16:55.017Z,99.90
2023-04-28T06:21:59.686Z,99.90
2023-04-28T06:27:02.956Z,99.90
2023-04-28T06:32:06.218Z,99.90
2023-04-28T06:37:08.652Z,99.90
2023-04-28T06:42:11.017Z,99.90
2023-04-28T06:47:17.486Z,99.90
2023-04-28T06:52:24.892Z,99.90
2023-04-28T06:57:36.269Z,99.90
2023-04-28T07:02:38.764Z,99.90
2023-04-28T07:07:41.290Z,99.90
2023-04-28T07:12:43.600Z,99.90
2023-04-28T07:17:45.983Z,99.90
2023-04-28T07:22:48.270Z,99.90
2023-04-28T07:27:50.477Z,99.90
2023-04-28T07:32:52.854Z,99.90
2023-04-28T07:37:55.947Z,99.90
2023-04-28T07:42:58.093Z,99.90
2023-04-28T07:48:00.304Z,99.90
2023-04-28T07:53:02.587Z,99.90
2023-04-28T07:58:05.599Z,99.90
2023-04-28T08:03:08.023Z,99.90
2023-04-28T08:08:10.511Z,99.90
2023-04-28T08:13:13.099Z,99.90
2023-04-28T08:18:15.840Z,99.90
2023-04-28T08:23:18.012Z,99.90
2023-04-28T08:28:20.311Z,99.90
2023-04-28T08:33:24.048Z,99.90
2023-04-28T08:38:27.216Z,99.90
2023-04-28T08:43:30.330Z,99.90
2023-04-28T08:48:41.187Z,99.90
2023-04-28T08:59:06.823Z,99.90
2023-04-28T09:04:14.030Z,99.90
2023-04-28T09:09:27.035Z,99.90
2023-04-28T09:14:33.050Z,99.90
2023-04-28T09:19:38.194Z,99.90
2023-04-28T09:24:43.012Z,99.90
2023-04-28T09:29:55.863Z,99.90
2023-04-28T09:34:58.101Z,99.90
2023-04-28T09:40:12.487Z,99.90
2023-04-28T09:45:16.463Z,99.90
2023-04-28T09:50:19.124Z,99.90
2023-04-28T09:55:21.406Z,99.20
2023-04-28T10:00:24.424Z,99.20
2023-04-28T10:05:26.945Z,99.90
2023-04-28T10:10:29.814Z,99.90
2023-04-28T10:15:33.774Z,99.90
2023-04-28T10:20:39.361Z,99.90
2023-04-28T10:25:43.664Z,99.90
2023-04-28T10:31:11.181Z,99.90
2023-04-28T10:36:55.166Z,99.90
2023-04-28T10:41:57.585Z,99.90
2023-04-28T10:47:10.846Z,99.90
2023-04-28T10:52:41.112Z,99.90
2023-04-28T10:57:43.414Z,99.90
2023-04-28T11:02:48.031Z,99.90
2023-04-28T11:08:31.214Z,99.90
2023-04-28T11:13:34.639Z,99.80
2023-04-28T11:19:05.101Z,97.00
2023-04-28T11:24:11.475Z,98.30
2023-04-28T11:29:15.339Z,99.20
2023-04-28T11:34:22.692Z,99.20
2023-04-28T11:39:33.777Z,98.80
2023-04-28T11:44:36.373Z,98.00
2023-04-28T11:49:47.864Z,96.10
2023-04-28T11:55:00.392Z,97.20
2023-04-28T12:00:22.079Z,96.40
2023-04-28T12:05:24.417Z,95.00
2023-04-28T12:10:26.646Z,94.50
2023-04-28T12:15:41.466Z,95.20
2023-04-28T12:20:43.872Z,94.70
2023-04-28T12:25:48.259Z,94.70
2023-04-28T12:30:51.211Z,94.00
2023-04-28T12:35:57.479Z,94.00
2023-04-28T12:41:00.670Z,93.20
2023-04-28T12:46:04.274Z,93.30
2023-04-28T12:51:06.652Z,92.80
2023-04-28T12:56:08.947Z,93.70
2023-04-28T13:01:11.263Z,92.40
2023-04-28T13:06:13.566Z,92.10
2023-04-28T13:11:22.670Z,91.40
2023-04-28T13:16:29.067Z,93.80
2023-04-28T13:21:32.161Z,95.40
2023-04-28T13:26:34.715Z,95.20
2023-04-28T13:31:37.304Z,92.30
2023-04-28T13:36:39.496Z,91.20
2023-04-28T13:41:41.975Z,92.00
2023-04-28T13:46:44.214Z,91.90
2023-04-28T13:51:46.386Z,93.70
2023-04-28T13:56:48.907Z,94.20
2023-04-28T14:01:52.064Z,94.00
2023-04-28T14:06:54.473Z,94.40
2023-04-28T14:11:57.012Z,95.10
2023-04-28T14:16:59.651Z,95.50
2023-04-28T14:22:02.877Z,96.00
2023-04-28T14:27:05.096Z,97.50
2023-04-28T14:32:07.428Z,98.00
2023-04-28T14:37:10.071Z,97.80
2023-04-28T14:42:12.570Z,97.90
2023-04-28T14:47:15.188Z,97.80
2023-04-28T14:52:18.045Z,97.60
2023-04-28T14:57:20.462Z,99.70
2023-04-28T15:02:28.616Z,99.90
2023-04-28T15:07:33.916Z,99.90
2023-04-28T15:12:36.097Z,99.90
2023-04-28T15:17:38.352Z,99.90
2023-04-28T15:22:41.205Z,99.90
2023-04-28T15:27:43.667Z,99.90
2023-04-28T15:32:45.984Z,99.90
2023-04-28T15:37:48.352Z,99.90
2023-04-28T15:42:53.272Z,99.90
2023-04-28T15:47:55.871Z,99.90
2023-04-28T15:52:58.313Z,99.90
2023-04-28T15:58:01.460Z,99.90
2023-04-28T16:03:03.870Z,99.90
2023-04-28T16:08:06.223Z,99.90
2023-04-28T16:13:11.804Z,99.90
2023-04-28T16:18:14.353Z,99.90
2023-04-28T16:23:16.800Z,99.90
2023-04-28T16:28:19.148Z,99.90
2023-04-28T16:33:21.463Z,99.90
2023-04-28T16:38:23.845Z,99.90
2023-04-28T16:43:29.061Z,99.90
2023-04-28T16:48:31.342Z,99.90
2023-04-28T16:53:36.712Z,99.90
2023-04-28T16:58:38.982Z,99.90
2023-04-28T17:03:42.335Z,99.90
2023-04-28T17:08:44.726Z,99.90
2023-04-28T17:13:47.541Z,99.90
2023-04-28T17:18:49.921Z,99.90
2023-04-28T17:23:52.121Z,99.90
2023-04-28T17:28:58.936Z,99.90
2023-04-28T17:34:01.304Z,99.90
2023-04-28T17:39:04.722Z,99.90
2023-04-28T17:44:07.021Z,99.90
2023-04-28T17:49:09.369Z,99.90
2023-04-28T17:54:11.632Z,99.90
2023-04-28T17:59:16.172Z,99.90
2023-04-28T18:04:18.333Z,99.90
2023-04-28T18:09:20.554Z,99.90
2023-04-28T18:14:23.332Z,99.90
2023-04-28T18:19:30.485Z,99.90
2023-04-28T18:24:32.639Z,99.90
2023-04-28T18:29:34.884Z,99.90
2023-04-28T18:34:37.015Z,99.90
2023-04-28T18:39:39.220Z,99.90
2023-04-28T18:44:41.661Z,99.90
2023-04-28T18:49:44.135Z,99.90
2023-04-28T18:54:46.547Z,99.90
2023-04-28T18:59:49.327Z,99.90
2023-04-28T19:04:51.832Z,99.90
2023-04-28T19:09:54.131Z,99.90
2023-04-28T19:14:56.530Z,99.90
2023-04-28T19:19:59.140Z,99.90
2023-04-28T19:25:02.524Z,99.90
2023-04-28T19:30:07.423Z,99.90
2023-04-28T19:35:10.426Z,99.90
2023-04-28T19:40:13.255Z,99.90
2023-04-28T19:45:17.133Z,99.90
2023-04-28T19:50:19.700Z,99.90
2023-04-28T19:55:23.957Z,99.90
2023-04-28T20:00:28.897Z,99.90
2023-04-28T20:05:32.105Z,99.90
2023-04-28T20:10:34.301Z,99.90
2023-04-28T20:15:36.557Z,99.90
2023-04-28T20:20:38.775Z,99.90
2023-04-28T20:25:41.514Z,99.90
2023-04-28T20:30:43.778Z,99.90
2023-04-28T20:35:45.936Z,99.90
2023-04-28T20:40:48.195Z,99.90
2023-04-28T20:45:50.732Z,99.90
2023-04-28T20:50:55.331Z,99.90
2023-04-28T20:55:57.788Z,99.90
2023-04-28T21:01:00.050Z,99.90
2023-04-28T21:06:02.211Z,99.90
2023-04-28T21:11:04.814Z,99.90
2023-04-28T21:16:16.479Z,99.90
2023-04-28T21:21:20.620Z,99.90
2023-04-28T21:26:24.090Z,99.90
2023-04-28T21:31:26.779Z,99.90
2023-04-28T21:36:29.013Z,99.90
2023-04-28T21:41:33.573Z,99.90
2023-04-28T21:46:36.133Z,99.90
2023-04-28T21:51:39.526Z,99.90
2023-04-28T21:56:41.796Z,99.90
2023-04-28T22:01:44.273Z,99.90
2023-04-28T22:06:46.766Z,99.90
2023-04-28T22:11:48.923Z,99.90
2023-04-28T22:16:51.117Z,99.90
2023-04-28T22:21:53.355Z,99.90
2023-04-28T22:26:55.518Z,99.90
2023-04-28T22:31:58.856Z,99.90
2023-04-28T22:37:01.054Z,99.90
2023-04-28T22:42:04.443Z,99.90
2023-04-28T22:47:06.828Z,99.90
2023-04-28T22:52:09.023Z,99.90
2023-04-28T22:57:11.269Z,99.90
2023-04-28T23:02:13.861Z,99.90
2023-04-28T23:07:15.999Z,99.90
2023-04-28T23:12:18.382Z,99.90
2023-04-28T23:17:20.563Z,99.90
2023-04-28T23:22:22.890Z,99.90
2023-04-28T23:27:25.410Z,99.90
2023-04-28T23:32:27.692Z,99.90
2023-04-28T23:37:30.133Z,99.90
2023-04-28T23:42:32.391Z,99.90
2023-04-28T23:47:34.818Z,99.90
2023-04-28T23:52:37.422Z,99.90
2023-04-28T23:57:40.601Z,99.90
